sensor_id;sensor_type;location;lat;lon;timestamp;P1;durP1;ratioP1;P2;durP2;ratioP2
4650;SDS011;2338;49.602;8.722;2023-06-22T00:02:42;12.60;;;8.77;;
4650;SDS011;2338;49.602;8.722;2023-06-22T00:05:27;17.97;;;8.33;;
4650;SDS011;2338;49.602;8.722;2023-06-22T00:08:13;13.70;;;6.87;;
4650;SDS011;2338;49.602;8.722;2023-06-22T00:10:59;14.97;;;7.90;;
4650;SDS011;2338;49.602;8.722;2023-06-22T00:13:44;11.27;;;7.50;;
4650;SDS011;2338;49.602;8.722;2023-06-22T00:16:32;14.27;;;7.43;;
4650;SDS011;2338;49.602;8.722;2023-06-22T00:19:18;8.97;;;7.37;;
4650;SDS011;2338;49.602;8.722;2023-06-22T00:22:03;8.50;;;7.43;;
4650;SDS011;2338;49.602;8.722;2023-06-22T00:24:49;12.37;;;7.97;;
4650;SDS011;2338;49.602;8.722;2023-06-22T00:27:34;9.10;;;7.10;;
4650;SDS011;2338;49.602;8.722;2023-06-22T00:30:20;9.73;;;8.33;;
4650;SDS011;2338;49.602;8.722;2023-06-22T00:33:07;10.80;;;7.30;;
4650;SDS011;2338;49.602;8.722;2023-06-22T00:35:52;10.23;;;7.77;;
4650;SDS011;2338;49.602;8.722;2023-06-22T00:38:37;16.47;;;7.47;;
4650;SDS011;2338;49.602;8.722;2023-06-22T00:41:24;9.43;;;7.60;;
4650;SDS011;2338;49.602;8.722;2023-06-22T00:44:12;9.30;;;6.80;;
4650;SDS011;2338;49.602;8.722;2023-06-22T00:46:57;8.30;;;7.40;;
4650;SDS011;2338;49.602;8.722;2023-06-22T00:49:45;8.67;;;6.47;;
4650;SDS011;2338;49.602;8.722;2023-06-22T00:52:32;10.37;;;6.70;;
4650;SDS011;2338;49.602;8.722;2023-06-22T00:55:18;10.90;;;6.07;;
4650;SDS011;2338;49.602;8.722;2023-06-22T00:58:05;10.80;;;6.87;;
4650;SDS011;2338;49.602;8.722;2023-06-22T01:00:53;11.63;;;7.50;;
4650;SDS011;2338;49.602;8.722;2023-06-22T01:03:39;10.30;;;8.33;;
4650;SDS011;2338;49.602;8.722;2023-06-22T01:06:28;10.10;;;8.20;;
4650;SDS011;2338;49.602;8.722;2023-06-22T01:09:22;16.20;;;10.20;;
4650;SDS011;2338;49.602;8.722;2023-06-22T01:12:15;16.30;;;9.90;;
4650;SDS011;2338;49.602;8.722;2023-06-22T01:15:04;13.90;;;9.10;;
4650;SDS011;2338;49.602;8.722;2023-06-22T01:17:55;19.23;;;11.27;;
4650;SDS011;2338;49.602;8.722;2023-06-22T01:20:42;14.30;;;9.97;;
4650;SDS011;2338;49.602;8.722;2023-06-22T01:23:33;12.00;;;9.63;;
4650;SDS011;2338;49.602;8.722;2023-06-22T01:26:36;16.23;;;10.23;;
4650;SDS011;2338;49.602;8.722;2023-06-22T01:29:28;12.33;;;10.07;;
4650;SDS011;2338;49.602;8.722;2023-06-22T01:32:15;12.23;;;8.80;;
4650;SDS011;2338;49.602;8.722;2023-06-22T01:35:03;10.70;;;9.37;;
4650;SDS011;2338;49.602;8.722;2023-06-22T01:37:50;14.07;;;9.90;;
4650;SDS011;2338;49.602;8.722;2023-06-22T01:40:36;11.80;;;10.37;;
4650;SDS011;2338;49.602;8.722;2023-06-22T01:43:22;12.53;;;10.33;;
4650;SDS011;2338;49.602;8.722;2023-06-22T01:46:11;12.80;;;10.63;;
4650;SDS011;2338;49.602;8.722;2023-06-22T01:48:57;10.20;;;9.20;;
4650;SDS011;2338;49.602;8.722;2023-06-22T01:51:42;13.50;;;10.20;;
4650;SDS011;2338;49.602;8.722;2023-06-22T01:54:27;13.70;;;10.10;;
4650;SDS011;2338;49.602;8.722;2023-06-22T01:57:13;11.40;;;10.27;;
4650;SDS011;2338;49.602;8.722;2023-06-22T01:59:59;10.90;;;9.80;;
4650;SDS011;2338;49.602;8.722;2023-06-22T02:02:49;12.50;;;10.17;;
4650;SDS011;2338;49.602;8.722;2023-06-22T02:05:51;11.73;;;10.57;;
4650;SDS011;2338;49.602;8.722;2023-06-22T02:08:41;11.13;;;9.93;;
4650;SDS011;2338;49.602;8.722;2023-06-22T02:11:32;10.90;;;9.80;;
4650;SDS011;2338;49.602;8.722;2023-06-22T02:14:19;12.20;;;11.00;;
4650;SDS011;2338;49.602;8.722;2023-06-22T02:17:05;11.23;;;10.13;;
4650;SDS011;2338;49.602;8.722;2023-06-22T02:19:54;12.70;;;11.03;;
4650;SDS011;2338;49.602;8.722;2023-06-22T02:22:39;13.60;;;9.77;;
4650;SDS011;2338;49.602;8.722;2023-06-22T02:25:25;12.90;;;9.40;;
4650;SDS011;2338;49.602;8.722;2023-06-22T02:28:10;11.20;;;9.87;;
4650;SDS011;2338;49.602;8.722;2023-06-22T02:30:56;12.50;;;10.03;;
4650;SDS011;2338;49.602;8.722;2023-06-22T02:33:41;14.17;;;10.20;;
4650;SDS011;2338;49.602;8.722;2023-06-22T02:36:29;10.87;;;9.77;;
4650;SDS011;2338;49.602;8.722;2023-06-22T02:39:14;12.17;;;10.50;;
4650;SDS011;2338;49.602;8.722;2023-06-22T02:42:00;12.87;;;10.37;;
4650;SDS011;2338;49.602;8.722;2023-06-22T02:44:45;13.50;;;10.60;;
4650;SDS011;2338;49.602;8.722;2023-06-22T02:47:30;10.97;;;9.87;;
4650;SDS011;2338;49.602;8.722;2023-06-22T02:50:16;10.77;;;9.60;;
4650;SDS011;2338;49.602;8.722;2023-06-22T02:53:03;10.87;;;9.77;;
4650;SDS011;2338;49.602;8.722;2023-06-22T02:55:49;13.00;;;10.70;;
4650;SDS011;2338;49.602;8.722;2023-06-22T02:58:35;20.93;;;11.33;;
4650;SDS011;2338;49.602;8.722;2023-06-22T03:01:23;13.90;;;10.80;;
4650;SDS011;2338;49.602;8.722;2023-06-22T03:04:09;11.30;;;10.10;;
4650;SDS011;2338;49.602;8.722;2023-06-22T03:06:54;10.70;;;9.60;;
4650;SDS011;2338;49.602;8.722;2023-06-22T03:09:41;10.60;;;9.60;;
4650;SDS011;2338;49.602;8.722;2023-06-22T03:12:27;10.40;;;9.40;;
4650;SDS011;2338;49.602;8.722;2023-06-22T03:15:12;10.80;;;9.70;;
4650;SDS011;2338;49.602;8.722;2023-06-22T03:17:58;10.17;;;9.13;;
4650;SDS011;2338;49.602;8.722;2023-06-22T03:20:44;10.20;;;9.20;;
4650;SDS011;2338;49.602;8.722;2023-06-22T03:23:29;13.40;;;10.53;;
4650;SDS011;2338;49.602;8.722;2023-06-22T03:26:17;9.63;;;8.73;;
4650;SDS011;2338;49.602;8.722;2023-06-22T03:29:03;10.40;;;9.47;;
4650;SDS011;2338;49.602;8.722;2023-06-22T03:31:49;11.60;;;9.83;;
4650;SDS011;2338;49.602;8.722;2023-06-22T03:34:34;10.83;;;8.60;;
4650;SDS011;2338;49.602;8.722;2023-06-22T03:37:20;11.70;;;8.70;;
4650;SDS011;2338;49.602;8.722;2023-06-22T03:40:06;13.07;;;8.60;;
4650;SDS011;2338;49.602;8.722;2023-06-22T03:42:53;11.23;;;9.70;;
4650;SDS011;2338;49.602;8.722;2023-06-22T03:45:39;10.50;;;9.13;;
4650;SDS011;2338;49.602;8.722;2023-06-22T03:48:25;12.00;;;9.60;;
4650;SDS011;2338;49.602;8.722;2023-06-22T03:51:10;10.53;;;9.53;;
4650;SDS011;2338;49.602;8.722;2023-06-22T03:53:56;11.77;;;10.03;;
4650;SDS011;2338;49.602;8.722;2023-06-22T03:56:41;10.30;;;9.30;;
4650;SDS011;2338;49.602;8.722;2023-06-22T03:59:28;13.90;;;9.60;;
4650;SDS011;2338;49.602;8.722;2023-06-22T04:02:14;10.00;;;8.80;;
4650;SDS011;2338;49.602;8.722;2023-06-22T04:04:59;25.23;;;10.00;;
4650;SDS011;2338;49.602;8.722;2023-06-22T04:07:45;12.23;;;8.90;;
4650;SDS011;2338;49.602;8.722;2023-06-22T04:10:30;11.17;;;10.07;;
4650;SDS011;2338;49.602;8.722;2023-06-22T04:13:16;11.13;;;9.93;;
4650;SDS011;2338;49.602;8.722;2023-06-22T04:16:03;11.03;;;9.90;;
4650;SDS011;2338;49.602;8.722;2023-06-22T04:18:48;13.40;;;10.03;;
4650;SDS011;2338;49.602;8.722;2023-06-22T04:21:34;12.93;;;10.13;;
4650;SDS011;2338;49.602;8.722;2023-06-22T04:24:20;13.43;;;10.00;;
4650;SDS011;2338;49.602;8.722;2023-06-22T04:27:06;13.40;;;10.53;;
4650;SDS011;2338;49.602;8.722;2023-06-22T04:29:51;19.33;;;10.07;;
4650;SDS011;2338;49.602;8.722;2023-06-22T04:32:38;12.00;;;10.50;;
4650;SDS011;2338;49.602;8.722;2023-06-22T04:35:24;11.37;;;10.27;;
4650;SDS011;2338;49.602;8.722;2023-06-22T04:38:11;11.27;;;10.17;;
4650;SDS011;2338;49.602;8.722;2023-06-22T04:40:57;14.47;;;11.30;;
4650;SDS011;2338;49.602;8.722;2023-06-22T04:43:44;11.90;;;9.57;;
4650;SDS011;2338;49.602;8.722;2023-06-22T04:46:38;12.80;;;10.60;;
4650;SDS011;2338;49.602;8.722;2023-06-22T04:49:25;11.80;;;10.10;;
4650;SDS011;2338;49.602;8.722;2023-06-22T04:52:16;10.67;;;9.57;;
4650;SDS011;2338;49.602;8.722;2023-06-22T04:55:03;12.77;;;9.73;;
4650;SDS011;2338;49.602;8.722;2023-06-22T04:57:50;12.63;;;10.47;;
4650;SDS011;2338;49.602;8.722;2023-06-22T05:00:35;13.53;;;10.27;;
4650;SDS011;2338;49.602;8.722;2023-06-22T05:03:21;14.20;;;8.90;;
4650;SDS011;2338;49.602;8.722;2023-06-22T05:06:10;14.90;;;10.67;;
4650;SDS011;2338;49.602;8.722;2023-06-22T05:08:56;11.57;;;10.40;;
4650;SDS011;2338;49.602;8.722;2023-06-22T05:11:42;12.90;;;10.40;;
4650;SDS011;2338;49.602;8.722;2023-06-22T05:14:28;11.07;;;9.90;;
4650;SDS011;2338;49.602;8.722;2023-06-22T05:17:13;13.87;;;9.90;;
4650;SDS011;2338;49.602;8.722;2023-06-22T05:20:03;14.63;;;10.20;;
4650;SDS011;2338;49.602;8.722;2023-06-22T05:22:51;17.33;;;10.00;;
4650;SDS011;2338;49.602;8.722;2023-06-22T05:25:36;11.10;;;9.00;;
4650;SDS011;2338;49.602;8.722;2023-06-22T05:28:22;15.47;;;10.43;;
4650;SDS011;2338;49.602;8.722;2023-06-22T05:31:08;11.50;;;10.37;;
4650;SDS011;2338;49.602;8.722;2023-06-22T05:33:54;12.37;;;9.77;;
4650;SDS011;2338;49.602;8.722;2023-06-22T05:36:40;11.27;;;9.30;;
4650;SDS011;2338;49.602;8.722;2023-06-22T05:39:29;11.00;;;8.97;;
4650;SDS011;2338;49.602;8.722;2023-06-22T05:42:14;12.00;;;9.30;;
4650;SDS011;2338;49.602;8.722;2023-06-22T05:44:59;11.53;;;9.83;;
4650;SDS011;2338;49.602;8.722;2023-06-22T05:47:45;14.60;;;9.70;;
4650;SDS011;2338;49.602;8.722;2023-06-22T05:50:31;10.13;;;9.13;;
4650;SDS011;2338;49.602;8.722;2023-06-22T05:53:16;11.20;;;8.60;;
4650;SDS011;2338;49.602;8.722;2023-06-22T05:56:03;16.67;;;9.87;;
4650;SDS011;2338;49.602;8.722;2023-06-22T05:58:48;11.40;;;10.17;;
4650;SDS011;2338;49.602;8.722;2023-06-22T06:01:34;10.70;;;8.90;;
4650;SDS011;2338;49.602;8.722;2023-06-22T06:04:19;9.93;;;8.93;;
4650;SDS011;2338;49.602;8.722;2023-06-22T06:07:05;10.27;;;7.77;;
4650;SDS011;2338;49.602;8.722;2023-06-22T06:09:51;10.17;;;8.70;;
4650;SDS011;2338;49.602;8.722;2023-06-22T06:12:38;11.50;;;9.20;;
4650;SDS011;2338;49.602;8.722;2023-06-22T06:15:24;11.27;;;9.50;;
4650;SDS011;2338;49.602;8.722;2023-06-22T06:18:09;10.40;;;8.40;;
4650;SDS011;2338;49.602;8.722;2023-06-22T06:20:55;13.23;;;8.87;;
4650;SDS011;2338;49.602;8.722;2023-06-22T06:23:41;15.50;;;8.20;;
4650;SDS011;2338;49.602;8.722;2023-06-22T06:26:26;14.13;;;9.03;;
4650;SDS011;2338;49.602;8.722;2023-06-22T06:29:14;9.67;;;8.27;;
4650;SDS011;2338;49.602;8.722;2023-06-22T06:32:01;11.03;;;9.27;;
4650;SDS011;2338;49.602;8.722;2023-06-22T06:34:48;10.03;;;8.73;;
4650;SDS011;2338;49.602;8.722;2023-06-22T06:37:35;11.20;;;9.07;;
4650;SDS011;2338;49.602;8.722;2023-06-22T06:40:21;11.40;;;9.40;;
4650;SDS011;2338;49.602;8.722;2023-06-22T06:43:07;11.27;;;8.87;;
4650;SDS011;2338;49.602;8.722;2023-06-22T06:45:54;10.20;;;9.20;;
4650;SDS011;2338;49.602;8.722;2023-06-22T06:48:39;10.03;;;8.40;;
4650;SDS011;2338;49.602;8.722;2023-06-22T06:51:25;9.53;;;8.13;;
4650;SDS011;2338;49.602;8.722;2023-06-22T06:54:10;11.20;;;10.10;;
4650;SDS011;2338;49.602;8.722;2023-06-22T06:56:56;12.20;;;8.50;;
4650;SDS011;2338;49.602;8.722;2023-06-22T06:59:42;12.23;;;8.30;;
4650;SDS011;2338;49.602;8.722;2023-06-22T07:02:28;10.53;;;8.47;;
4650;SDS011;2338;49.602;8.722;2023-06-22T07:05:14;12.07;;;9.13;;
4650;SDS011;2338;49.602;8.722;2023-06-22T07:08:00;14.63;;;8.30;;
4650;SDS011;2338;49.602;8.722;2023-06-22T07:10:45;10.43;;;8.83;;
4650;SDS011;2338;49.602;8.722;2023-06-22T07:13:31;9.83;;;8.83;;
4650;SDS011;2338;49.602;8.722;2023-06-22T07:16:17;12.83;;;8.70;;
4650;SDS011;2338;49.602;8.722;2023-06-22T07:19:04;11.10;;;8.67;;
4650;SDS011;2338;49.602;8.722;2023-06-22T07:21:49;10.40;;;9.30;;
4650;SDS011;2338;49.602;8.722;2023-06-22T07:24:35;12.33;;;9.10;;
4650;SDS011;2338;49.602;8.722;2023-06-22T07:27:20;10.80;;;8.77;;
4650;SDS011;2338;49.602;8.722;2023-06-22T07:30:06;10.67;;;8.20;;
4650;SDS011;2338;49.602;8.722;2023-06-22T07:32:52;10.30;;;7.77;;
4650;SDS011;2338;49.602;8.722;2023-06-22T07:35:39;15.57;;;8.43;;
4650;SDS011;2338;49.602;8.722;2023-06-22T07:38:24;12.20;;;8.30;;
4650;SDS011;2338;49.602;8.722;2023-06-22T07:41:10;11.00;;;7.60;;
4650;SDS011;2338;49.602;8.722;2023-06-22T07:43:55;9.67;;;8.77;;
4650;SDS011;2338;49.602;8.722;2023-06-22T07:46:41;11.27;;;8.10;;
4650;SDS011;2338;49.602;8.722;2023-06-22T07:49:27;15.80;;;8.63;;
4650;SDS011;2338;49.602;8.722;2023-06-22T07:52:14;13.07;;;8.20;;
4650;SDS011;2338;49.602;8.722;2023-06-22T07:55:00;9.03;;;8.13;;
4650;SDS011;2338;49.602;8.722;2023-06-22T07:57:46;7.50;;;6.80;;
4650;SDS011;2338;49.602;8.722;2023-06-22T08:00:35;9.60;;;8.60;;
4650;SDS011;2338;49.602;8.722;2023-06-22T08:03:21;9.57;;;8.30;;
4650;SDS011;2338;49.602;8.722;2023-06-22T08:06:07;11.00;;;8.07;;
4650;SDS011;2338;49.602;8.722;2023-06-22T08:08:54;11.00;;;7.73;;
4650;SDS011;2338;49.602;8.722;2023-06-22T08:11:40;11.33;;;8.40;;
4650;SDS011;2338;49.602;8.722;2023-06-22T08:14:26;10.60;;;7.70;;
4650;SDS011;2338;49.602;8.722;2023-06-22T08:17:12;10.40;;;7.00;;
4650;SDS011;2338;49.602;8.722;2023-06-22T08:19:58;9.00;;;7.33;;
4650;SDS011;2338;49.602;8.722;2023-06-22T08:22:43;8.80;;;7.33;;
4650;SDS011;2338;49.602;8.722;2023-06-22T08:25:30;10.67;;;7.43;;
4650;SDS011;2338;49.602;8.722;2023-06-22T08:28:16;8.33;;;6.53;;
4650;SDS011;2338;49.602;8.722;2023-06-22T08:31:02;9.97;;;7.30;;
4650;SDS011;2338;49.602;8.722;2023-06-22T08:33:47;10.13;;;7.43;;
4650;SDS011;2338;49.602;8.722;2023-06-22T08:36:33;10.40;;;7.80;;
4650;SDS011;2338;49.602;8.722;2023-06-22T08:39:25;8.17;;;7.37;;
4650;SDS011;2338;49.602;8.722;2023-06-22T08:42:13;8.73;;;7.43;;
4650;SDS011;2338;49.602;8.722;2023-06-22T08:44:59;10.00;;;8.00;;
4650;SDS011;2338;49.602;8.722;2023-06-22T08:47:45;14.10;;;7.23;;
4650;SDS011;2338;49.602;8.722;2023-06-22T08:50:30;9.97;;;7.77;;
4650;SDS011;2338;49.602;8.722;2023-06-22T08:53:16;7.77;;;6.97;;
4650;SDS011;2338;49.602;8.722;2023-06-22T08:56:02;12.10;;;7.90;;
4650;SDS011;2338;49.602;8.722;2023-06-22T08:58:48;11.17;;;8.07;;
4650;SDS011;2338;49.602;8.722;2023-06-22T09:01:34;10.23;;;7.57;;
4650;SDS011;2338;49.602;8.722;2023-06-22T09:04:20;12.33;;;7.03;;
4650;SDS011;2338;49.602;8.722;2023-06-22T09:07:05;10.70;;;7.27;;
4650;SDS011;2338;49.602;8.722;2023-06-22T09:09:51;9.90;;;6.87;;
4650;SDS011;2338;49.602;8.722;2023-06-22T09:12:36;10.67;;;6.70;;
4650;SDS011;2338;49.602;8.722;2023-06-22T09:15:23;10.60;;;7.03;;
4650;SDS011;2338;49.602;8.722;2023-06-22T09:18:09;12.33;;;8.17;;
4650;SDS011;2338;49.602;8.722;2023-06-22T09:20:55;13.30;;;7.30;;
4650;SDS011;2338;49.602;8.722;2023-06-22T09:23:41;13.53;;;7.10;;
4650;SDS011;2338;49.602;8.722;2023-06-22T09:26:26;10.13;;;7.23;;
4650;SDS011;2338;49.602;8.722;2023-06-22T09:29:12;11.37;;;7.37;;
4650;SDS011;2338;49.602;8.722;2023-06-22T09:31:59;10.43;;;7.00;;
4650;SDS011;2338;49.602;8.722;2023-06-22T09:34:45;9.20;;;6.90;;
4650;SDS011;2338;49.602;8.722;2023-06-22T09:37:30;9.13;;;6.80;;
4650;SDS011;2338;49.602;8.722;2023-06-22T09:40:16;12.87;;;6.30;;
4650;SDS011;2338;49.602;8.722;2023-06-22T09:43:01;14.43;;;7.10;;
4650;SDS011;2338;49.602;8.722;2023-06-22T09:45:47;12.40;;;6.40;;
4650;SDS011;2338;49.602;8.722;2023-06-22T09:48:34;20.93;;;6.17;;
4650;SDS011;2338;49.602;8.722;2023-06-22T09:51:19;15.83;;;7.87;;
4650;SDS011;2338;49.602;8.722;2023-06-22T09:54:07;11.87;;;6.50;;
4650;SDS011;2338;49.602;8.722;2023-06-22T09:56:52;8.60;;;6.73;;
4650;SDS011;2338;49.602;8.722;2023-06-22T09:59:38;10.20;;;6.67;;
4650;SDS011;2338;49.602;8.722;2023-06-22T10:02:24;7.47;;;6.00;;
4650;SDS011;2338;49.602;8.722;2023-06-22T10:05:11;10.00;;;7.00;;
4650;SDS011;2338;49.602;8.722;2023-06-22T10:07:57;8.47;;;6.23;;
4650;SDS011;2338;49.602;8.722;2023-06-22T10:10:42;12.17;;;6.83;;
4650;SDS011;2338;49.602;8.722;2023-06-22T10:13:28;13.20;;;6.90;;
4650;SDS011;2338;49.602;8.722;2023-06-22T10:16:13;13.33;;;6.47;;
4650;SDS011;2338;49.602;8.722;2023-06-22T10:18:59;11.83;;;6.47;;
4650;SDS011;2338;49.602;8.722;2023-06-22T10:21:46;9.03;;;6.53;;
4650;SDS011;2338;49.602;8.722;2023-06-22T10:24:31;13.67;;;7.17;;
4650;SDS011;2338;49.602;8.722;2023-06-22T10:27:17;10.50;;;6.67;;
4650;SDS011;2338;49.602;8.722;2023-06-22T10:30:02;12.37;;;6.87;;
4650;SDS011;2338;49.602;8.722;2023-06-22T10:32:49;9.23;;;6.87;;
4650;SDS011;2338;49.602;8.722;2023-06-22T10:35:34;12.73;;;6.83;;
4650;SDS011;2338;49.602;8.722;2023-06-22T10:38:22;13.50;;;7.27;;
4650;SDS011;2338;49.602;8.722;2023-06-22T10:41:08;13.90;;;7.70;;
4650;SDS011;2338;49.602;8.722;2023-06-22T10:43:53;11.60;;;6.80;;
4650;SDS011;2338;49.602;8.722;2023-06-22T10:46:39;8.40;;;6.67;;
4650;SDS011;2338;49.602;8.722;2023-06-22T10:49:24;13.03;;;6.30;;
4650;SDS011;2338;49.602;8.722;2023-06-22T10:52:10;11.60;;;7.47;;
4650;SDS011;2338;49.602;8.722;2023-06-22T10:54:57;11.40;;;6.77;;
4650;SDS011;2338;49.602;8.722;2023-06-22T10:57:42;10.97;;;6.93;;
4650;SDS011;2338;49.602;8.722;2023-06-22T11:00:30;13.43;;;6.70;;
4650;SDS011;2338;49.602;8.722;2023-06-22T11:03:15;14.00;;;7.33;;
4650;SDS011;2338;49.602;8.722;2023-06-22T11:06:01;12.20;;;6.70;;
4650;SDS011;2338;49.602;8.722;2023-06-22T11:08:47;15.97;;;7.10;;
4650;SDS011;2338;49.602;8.722;2023-06-22T11:11:34;11.30;;;6.43;;
4650;SDS011;2338;49.602;8.722;2023-06-22T11:14:19;8.67;;;6.20;;
4650;SDS011;2338;49.602;8.722;2023-06-22T11:17:05;9.90;;;6.70;;
4650;SDS011;2338;49.602;8.722;2023-06-22T11:19:51;9.60;;;6.33;;
4650;SDS011;2338;49.602;8.722;2023-06-22T11:22:37;9.47;;;6.50;;
4650;SDS011;2338;49.602;8.722;2023-06-22T11:25:22;11.97;;;7.27;;
4650;SDS011;2338;49.602;8.722;2023-06-22T11:28:09;13.73;;;7.90;;
4650;SDS011;2338;49.602;8.722;2023-06-22T11:30:55;12.87;;;7.60;;
4650;SDS011;2338;49.602;8.722;2023-06-22T11:33:40;11.73;;;8.17;;
4650;SDS011;2338;49.602;8.722;2023-06-22T11:36:26;9.77;;;7.20;;
4650;SDS011;2338;49.602;8.722;2023-06-22T11:39:12;11.97;;;6.73;;
4650;SDS011;2338;49.602;8.722;2023-06-22T11:41:58;12.20;;;6.57;;
4650;SDS011;2338;49.602;8.722;2023-06-22T11:44:45;12.57;;;6.87;;
4650;SDS011;2338;49.602;8.722;2023-06-22T11:47:31;11.67;;;6.90;;
4650;SDS011;2338;49.602;8.722;2023-06-22T11:50:16;9.73;;;6.60;;
4650;SDS011;2338;49.602;8.722;2023-06-22T11:53:02;25.77;;;7.30;;
4650;SDS011;2338;49.602;8.722;2023-06-22T11:55:47;13.77;;;6.90;;
4650;SDS011;2338;49.602;8.722;2023-06-22T11:58:33;10.90;;;6.33;;
4650;SDS011;2338;49.602;8.722;2023-06-22T12:01:20;10.97;;;7.20;;
4650;SDS011;2338;49.602;8.722;2023-06-22T12:04:05;8.03;;;6.63;;
4650;SDS011;2338;49.602;8.722;2023-06-22T12:06:51;12.63;;;7.87;;
4650;SDS011;2338;49.602;8.722;2023-06-22T12:09:36;17.47;;;8.43;;
4650;SDS011;2338;49.602;8.722;2023-06-22T12:12:22;10.30;;;6.97;;
4650;SDS011;2338;49.602;8.722;2023-06-22T12:15:08;10.43;;;7.00;;
4650;SDS011;2338;49.602;8.722;2023-06-22T12:17:57;12.90;;;7.10;;
4650;SDS011;2338;49.602;8.722;2023-06-22T12:20:42;12.20;;;7.10;;
4650;SDS011;2338;49.602;8.722;2023-06-22T12:23:28;11.00;;;7.10;;
4650;SDS011;2338;49.602;8.722;2023-06-22T12:26:14;14.13;;;6.60;;
4650;SDS011;2338;49.602;8.722;2023-06-22T12:29:00;13.30;;;7.10;;
4650;SDS011;2338;49.602;8.722;2023-06-22T12:31:45;8.70;;;6.30;;
4650;SDS011;2338;49.602;8.722;2023-06-22T12:34:32;11.30;;;6.23;;
4650;SDS011;2338;49.602;8.722;2023-06-22T12:37:17;13.80;;;7.13;;
4650;SDS011;2338;49.602;8.722;2023-06-22T12:40:03;17.47;;;7.67;;
4650;SDS011;2338;49.602;8.722;2023-06-22T12:42:50;10.50;;;5.97;;
4650;SDS011;2338;49.602;8.722;2023-06-22T12:45:35;18.73;;;7.00;;
4650;SDS011;2338;49.602;8.722;2023-06-22T12:48:21;14.23;;;7.57;;
4650;SDS011;2338;49.602;8.722;2023-06-22T12:51:08;11.30;;;6.47;;
4650;SDS011;2338;49.602;8.722;2023-06-22T12:53:53;14.93;;;6.80;;
4650;SDS011;2338;49.602;8.722;2023-06-22T12:56:39;8.50;;;6.50;;
4650;SDS011;2338;49.602;8.722;2023-06-22T12:59:27;14.80;;;6.60;;
4650;SDS011;2338;49.602;8.722;2023-06-22T13:02:13;11.80;;;7.30;;
4650;SDS011;2338;49.602;8.722;2023-06-22T13:04:58;13.13;;;6.77;;
4650;SDS011;2338;49.602;8.722;2023-06-22T13:07:45;10.27;;;6.50;;
4650;SDS011;2338;49.602;8.722;2023-06-22T13:10:30;11.70;;;6.47;;
4650;SDS011;2338;49.602;8.722;2023-06-22T13:13:16;11.70;;;6.30;;
4650;SDS011;2338;49.602;8.722;2023-06-22T13:16:02;14.53;;;6.30;;
4650;SDS011;2338;49.602;8.722;2023-06-22T13:18:47;15.43;;;6.20;;
4650;SDS011;2338;49.602;8.722;2023-06-22T13:21:33;17.17;;;6.20;;
4650;SDS011;2338;49.602;8.722;2023-06-22T13:24:20;12.80;;;6.60;;
4650;SDS011;2338;49.602;8.722;2023-06-22T13:27:05;13.90;;;6.03;;
4650;SDS011;2338;49.602;8.722;2023-06-22T13:29:51;9.73;;;5.83;;
4650;SDS011;2338;49.602;8.722;2023-06-22T13:32:37;11.23;;;5.63;;
4650;SDS011;2338;49.602;8.722;2023-06-22T13:35:25;11.13;;;6.10;;
4650;SDS011;2338;49.602;8.722;2023-06-22T13:38:10;13.10;;;5.57;;
4650;SDS011;2338;49.602;8.722;2023-06-22T13:40:57;9.30;;;5.43;;
4650;SDS011;2338;49.602;8.722;2023-06-22T13:43:43;10.80;;;6.10;;
4650;SDS011;2338;49.602;8.722;2023-06-22T13:46:28;15.13;;;5.60;;
4650;SDS011;2338;49.602;8.722;2023-06-22T13:49:14;14.07;;;6.70;;
4650;SDS011;2338;49.602;8.722;2023-06-22T13:51:59;16.53;;;5.90;;
4650;SDS011;2338;49.602;8.722;2023-06-22T13:54:47;14.40;;;6.03;;
4650;SDS011;2338;49.602;8.722;2023-06-22T13:57:34;13.60;;;6.37;;
4650;SDS011;2338;49.602;8.722;2023-06-22T14:00:19;15.10;;;6.77;;
4650;SDS011;2338;49.602;8.722;2023-06-22T14:03:05;12.33;;;6.33;;
4650;SDS011;2338;49.602;8.722;2023-06-22T14:05:50;12.70;;;6.47;;
4650;SDS011;2338;49.602;8.722;2023-06-22T14:08:37;13.10;;;6.60;;
4650;SDS011;2338;49.602;8.722;2023-06-22T14:11:24;11.97;;;5.63;;
4650;SDS011;2338;49.602;8.722;2023-06-22T14:14:11;10.57;;;6.17;;
4650;SDS011;2338;49.602;8.722;2023-06-22T14:16:56;14.23;;;7.37;;
4650;SDS011;2338;49.602;8.722;2023-06-22T14:19:42;14.73;;;6.53;;
4650;SDS011;2338;49.602;8.722;2023-06-22T14:22:28;15.00;;;5.57;;
4650;SDS011;2338;49.602;8.722;2023-06-22T14:25:13;15.20;;;6.53;;
4650;SDS011;2338;49.602;8.722;2023-06-22T14:27:59;9.03;;;5.53;;
4650;SDS011;2338;49.602;8.722;2023-06-22T14:30:46;16.00;;;6.33;;
4650;SDS011;2338;49.602;8.722;2023-06-22T14:33:32;10.20;;;5.40;;
4650;SDS011;2338;49.602;8.722;2023-06-22T14:36:17;15.50;;;6.80;;
4650;SDS011;2338;49.602;8.722;2023-06-22T14:39:02;12.37;;;5.83;;
4650;SDS011;2338;49.602;8.722;2023-06-22T14:41:48;13.90;;;6.60;;
4650;SDS011;2338;49.602;8.722;2023-06-22T14:44:34;11.73;;;6.50;;
4650;SDS011;2338;49.602;8.722;2023-06-22T14:47:20;15.70;;;6.30;;
4650;SDS011;2338;49.602;8.722;2023-06-22T14:50:06;15.10;;;6.40;;
4650;SDS011;2338;49.602;8.722;2023-06-22T14:52:52;8.70;;;6.10;;
4650;SDS011;2338;49.602;8.722;2023-06-22T14:55:38;12.50;;;6.13;;
4650;SDS011;2338;49.602;8.722;2023-06-22T14:58:23;21.30;;;7.00;;
4650;SDS011;2338;49.602;8.722;2023-06-22T15:01:09;14.40;;;7.97;;
4650;SDS011;2338;49.602;8.722;2023-06-22T15:03:56;9.37;;;5.80;;
4650;SDS011;2338;49.602;8.722;2023-06-22T15:06:41;8.50;;;5.63;;
4650;SDS011;2338;49.602;8.722;2023-06-22T15:09:28;11.03;;;5.97;;
4650;SDS011;2338;49.602;8.722;2023-06-22T15:12:13;13.87;;;6.23;;
4650;SDS011;2338;49.602;8.722;2023-06-22T15:14:59;13.10;;;6.37;;
4650;SDS011;2338;49.602;8.722;2023-06-22T15:17:45;11.70;;;6.57;;
4650;SDS011;2338;49.602;8.722;2023-06-22T15:20:31;9.83;;;6.40;;
4650;SDS011;2338;49.602;8.722;2023-06-22T15:23:17;17.93;;;6.77;;
4650;SDS011;2338;49.602;8.722;2023-06-22T15:26:03;12.80;;;7.27;;
4650;SDS011;2338;49.602;8.722;2023-06-22T15:28:49;15.27;;;6.30;;
4650;SDS011;2338;49.602;8.722;2023-06-22T15:31:35;9.30;;;6.40;;
4650;SDS011;2338;49.602;8.722;2023-06-22T15:34:20;10.13;;;6.17;;
4650;SDS011;2338;49.602;8.722;2023-06-22T15:37:07;21.10;;;7.73;;
4650;SDS011;2338;49.602;8.722;2023-06-22T15:39:52;19.70;;;6.73;;
4650;SDS011;2338;49.602;8.722;2023-06-22T15:42:39;21.20;;;6.20;;
4650;SDS011;2338;49.602;8.722;2023-06-22T15:45:25;16.50;;;7.23;;
4650;SDS011;2338;49.602;8.722;2023-06-22T15:48:10;15.20;;;7.63;;
4650;SDS011;2338;49.602;8.722;2023-06-22T15:50:56;18.77;;;8.20;;
4650;SDS011;2338;49.602;8.722;2023-06-22T15:53:43;19.47;;;6.90;;
4650;SDS011;2338;49.602;8.722;2023-06-22T15:56:28;15.03;;;7.60;;
4650;SDS011;2338;49.602;8.722;2023-06-22T15:59:14;18.67;;;7.57;;
4650;SDS011;2338;49.602;8.722;2023-06-22T16:01:59;9.33;;;6.83;;
4650;SDS011;2338;49.602;8.722;2023-06-22T16:04:45;15.83;;;7.23;;
4650;SDS011;2338;49.602;8.722;2023-06-22T16:07:30;18.03;;;7.10;;
4650;SDS011;2338;49.602;8.722;2023-06-22T16:10:17;9.90;;;7.50;;
4650;SDS011;2338;49.602;8.722;2023-06-22T16:13:03;17.13;;;6.90;;
4650;SDS011;2338;49.602;8.722;2023-06-22T16:15:48;11.67;;;7.20;;
4650;SDS011;2338;49.602;8.722;2023-06-22T16:18:34;13.80;;;8.13;;
4650;SDS011;2338;49.602;8.722;2023-06-22T16:21:20;21.53;;;8.33;;
4650;SDS011;2338;49.602;8.722;2023-06-22T16:24:05;15.50;;;7.93;;
4650;SDS011;2338;49.602;8.722;2023-06-22T16:26:53;14.37;;;7.30;;
4650;SDS011;2338;49.602;8.722;2023-06-22T16:29:38;12.10;;;7.07;;
4650;SDS011;2338;49.602;8.722;2023-06-22T16:32:23;17.70;;;7.60;;
4650;SDS011;2338;49.602;8.722;2023-06-22T16:35:09;18.00;;;7.43;;
4650;SDS011;2338;49.602;8.722;2023-06-22T16:37:55;17.63;;;7.80;;
4650;SDS011;2338;49.602;8.722;2023-06-22T16:40:41;16.10;;;7.90;;
4650;SDS011;2338;49.602;8.722;2023-06-22T16:43:27;22.87;;;7.70;;
4650;SDS011;2338;49.602;8.722;2023-06-22T16:46:13;11.20;;;7.90;;
4650;SDS011;2338;49.602;8.722;2023-06-22T16:48:58;10.47;;;7.07;;
4650;SDS011;2338;49.602;8.722;2023-06-22T16:51:44;17.70;;;8.23;;
4650;SDS011;2338;49.602;8.722;2023-06-22T16:54:30;13.00;;;7.23;;
4650;SDS011;2338;49.602;8.722;2023-06-22T16:57:15;15.27;;;7.00;;
4650;SDS011;2338;49.602;8.722;2023-06-22T17:00:04;20.73;;;7.97;;